sensor_id;sensor_type;location;lat;lon;timestamp;pressure;altitude;pressure_sealevel;temperature;humidity
53546;BME280;39432;51.902;10.844;2023-03-01T00:00:25;100966.16;;;-2.32;100.00
53546;BME280;39432;51.902;10.844;2023-03-01T00:02:55;100961.38;;;-1.06;100.00
53546;BME280;39432;51.902;10.844;2023-03-01T00:05:25;100955.41;;;-1.84;100.00
53546;BME280;39432;51.902;10.844;2023-03-01T00:07:57;100967.59;;;-2.28;100.00
53546;BME280;39432;51.902;10.844;2023-03-01T00:10:27;100959.00;;;-2.03;100.00
53546;BME280;39432;51.902;10.844;2023-03-01T00:12:56;100958.56;;;-2.18;100.00
53546;BME280;39432;51.902;10.844;2023-03-01T00:15:26;100957.41;;;-1.96;100.00
53546;BME280;39432;51.902;10.844;2023-03-01T00:17:55;100960.50;;;-1.91;100.00
53546;BME280;39432;51.902;10.844;2023-03-01T00:20:25;100968.72;;;-2.02;100.00
53546;BME280;39432;51.902;10.844;2023-03-01T00:22:57;100961.56;;;-1.54;100.00
53546;BME280;39432;51.902;10.844;2023-03-01T00:25:27;100953.91;;;-1.49;100.00
53546;BME280;39432;51.902;10.844;2023-03-01T00:27:56;100954.25;;;-1.72;100.00
53546;BME280;39432;51.902;10.844;2023-03-01T00:30:26;100949.03;;;-1.26;100.00
53546;BME280;39432;51.902;10.844;2023-03-01T00:32:56;100950.59;;;-0.96;100.00
53546;BME280;39432;51.902;10.844;2023-03-01T00:35:25;100952.84;;;-1.66;100.00
53546;BME280;39432;51.902;10.844;2023-03-01T00:37:59;100961.38;;;-1.06;100.00
53546;BME280;39432;51.902;10.844;2023-03-01T00:40:33;100950.34;;;-1.30;100.00
53546;BME280;39432;51.902;10.844;2023-03-01T00:43:03;100953.06;;;-1.50;100.00
53546;BME280;39432;51.902;10.844;2023-03-01T00:45:33;100951.09;;;-1.48;100.00
53546;BME280;39432;51.902;10.844;2023-03-01T00:48:03;100949.13;;;-1.18;100.00
53546;BME280;39432;51.902;10.844;2023-03-01T00:50:33;100964.69;;;-1.59;100.00
53546;BME280;39432;51.902;10.844;2023-03-01T00:53:05;100959.38;;;-1.31;100.00
53546;BME280;39432;51.902;10.844;2023-03-01T00:55:35;100947.66;;;-1.03;100.00
53546;BME280;39432;51.902;10.844;2023-03-01T00:58:05;100944.44;;;-0.89;100.00
53546;BME280;39432;51.902;10.844;2023-03-01T01:00:35;100949.44;;;-0.94;100.00
53546;BME280;39432;51.902;10.844;2023-03-01T01:03:04;100942.53;;;-1.24;100.00
53546;BME280;39432;51.902;10.844;2023-03-01T01:05:34;100942.22;;;-1.48;100.00
53546;BME280;39432;51.902;10.844;2023-03-01T01:08:07;100941.97;;;-1.00;100.00
53546;BME280;39432;51.902;10.844;2023-03-01T01:10:36;100941.25;;;-0.92;100.00
53546;BME280;39432;51.902;10.844;2023-03-01T01:13:06;100940.22;;;-2.03;100.00
53546;BME280;39432;51.902;10.844;2023-03-01T01:15:35;100943.03;;;-2.53;100.00
53546;BME280;39432;51.902;10.844;2023-03-01T01:18:05;100941.03;;;-2.80;100.00
53546;BME280;39432;51.902;10.844;2023-03-01T01:20:35;100939.94;;;-2.58;100.00
53546;BME280;39432;51.902;10.844;2023-03-01T01:23:08;100941.88;;;-2.70;100.00
53546;BME280;39432;51.902;10.844;2023-03-01T01:25:38;100928.94;;;-2.16;100.00
53546;BME280;39432;51.902;10.844;2023-03-01T01:28:07;100924.41;;;-1.96;100.00
53546;BME280;39432;51.902;10.844;2023-03-01T01:30:37;100925.81;;;-2.21;100.00
53546;BME280;39432;51.902;10.844;2023-03-01T01:33:06;100918.22;;;-2.35;100.00
53546;BME280;39432;51.902;10.844;2023-03-01T01:35:36;100903.66;;;-2.04;100.00
53546;BME280;39432;51.902;10.844;2023-03-01T01:38:08;100905.97;;;-1.72;100.00
53546;BME280;39432;51.902;10.844;2023-03-01T01:40:43;100884.25;;;-1.78;100.00
53546;BME280;39432;51.902;10.844;2023-03-01T01:43:18;100892.53;;;-2.19;100.00
53546;BME280;39432;51.902;10.844;2023-03-01T01:45:49;100882.91;;;-2.02;100.00
53546;BME280;39432;51.902;10.844;2023-03-01T01:48:22;100881.81;;;-1.35;100.00
53546;BME280;39432;51.902;10.844;2023-03-01T01:50:57;100871.50;;;-1.67;100.00
53546;BME280;39432;51.902;10.844;2023-03-01T01:53:30;100875.22;;;-1.77;100.00
53546;BME280;39432;51.902;10.844;2023-03-01T01:56:01;100872.59;;;-1.97;100.00
53546;BME280;39432;51.902;10.844;2023-03-01T01:58:31;100876.16;;;-2.16;100.00
53546;BME280;39432;51.902;10.844;2023-03-01T02:01:01;100885.50;;;-2.78;100.00
53546;BME280;39432;51.902;10.844;2023-03-01T02:03:34;100879.66;;;-2.05;100.00
53546;BME280;39432;51.902;10.844;2023-03-01T02:06:13;100885.34;;;-2.18;100.00
53546;BME280;39432;51.902;10.844;2023-03-01T02:08:50;100877.84;;;-1.58;100.00
53546;BME280;39432;51.902;10.844;2023-03-01T02:14:48;100870.28;;;-2.77;100.00
53546;BME280;39432;51.902;10.844;2023-03-01T02:17:18;100875.59;;;-3.16;100.00
53546;BME280;39432;51.902;10.844;2023-03-01T02:19:58;100869.97;;;-3.13;100.00
53546;BME280;39432;51.902;10.844;2023-03-01T02:22:31;100860.53;;;-2.49;100.00
53546;BME280;39432;51.902;10.844;2023-03-01T02:25:12;100855.91;;;-2.96;100.00
53546;BME280;39432;51.902;10.844;2023-03-01T02:27:54;100866.84;;;-3.18;100.00
53546;BME280;39432;51.902;10.844;2023-03-01T02:30:30;100859.94;;;-3.21;100.00
53546;BME280;39432;51.902;10.844;2023-03-01T02:33:00;100852.78;;;-3.10;100.00
53546;BME280;39432;51.902;10.844;2023-03-01T02:35:32;100858.13;;;-2.23;100.00
53546;BME280;39432;51.902;10.844;2023-03-01T02:38:05;100858.44;;;-2.46;100.00
53546;BME280;39432;51.902;10.844;2023-03-01T02:40:37;100863.25;;;-1.83;100.00
53546;BME280;39432;51.902;10.844;2023-03-01T02:43:10;100867.53;;;-2.09;100.00
53546;BME280;39432;51.902;10.844;2023-03-01T02:45:48;100871.94;;;-2.18;100.00
53546;BME280;39432;51.902;10.844;2023-03-01T02:48:19;100869.13;;;-3.04;100.00
53546;BME280;39432;51.902;10.844;2023-03-01T02:51:01;100874.19;;;-3.10;100.00
53546;BME280;39432;51.902;10.844;2023-03-01T02:53:40;100876.47;;;-2.86;100.00
53546;BME280;39432;51.902;10.844;2023-03-01T02:56:11;100876.78;;;-2.51;100.00
53546;BME280;39432;51.902;10.844;2023-03-01T02:58:43;100862.06;;;-2.08;100.00
53546;BME280;39432;51.902;10.844;2023-03-01T03:01:21;100853.53;;;-2.79;100.00
53546;BME280;39432;51.902;10.844;2023-03-01T03:04:05;100852.78;;;-2.81;100.00
53546;BME280;39432;51.902;10.844;2023-03-01T03:06:34;100847.25;;;-3.28;100.00
53546;BME280;39432;51.902;10.844;2023-03-01T03:09:05;100842.88;;;-3.20;100.00
53546;BME280;39432;51.902;10.844;2023-03-01T03:11:34;100843.00;;;-3.31;100.00
53546;BME280;39432;51.902;10.844;2023-03-01T03:14:05;100843.63;;;-3.67;100.00
53546;BME280;39432;51.902;10.844;2023-03-01T03:16:45;100838.38;;;-3.69;100.00
53546;BME280;39432;51.902;10.844;2023-03-01T03:19:17;100835.31;;;-3.05;100.00
53546;BME280;39432;51.902;10.844;2023-03-01T03:21:47;100839.41;;;-3.60;100.00
53546;BME280;39432;51.902;10.844;2023-03-01T03:24:16;100836.34;;;-3.56;100.00
53546;BME280;39432;51.902;10.844;2023-03-01T03:26:47;100838.88;;;-3.54;100.00
53546;BME280;39432;51.902;10.844;2023-03-01T03:29:17;100846.53;;;-3.30;100.00
53546;BME280;39432;51.902;10.844;2023-03-01T03:31:49;100841.50;;;-3.04;100.00
53546;BME280;39432;51.902;10.844;2023-03-01T03:34:19;100842.50;;;-2.86;100.00
53546;BME280;39432;51.902;10.844;2023-03-01T03:36:52;100850.56;;;-2.96;100.00
53546;BME280;39432;51.902;10.844;2023-03-01T03:39:23;100846.03;;;-2.95;100.00
53546;BME280;39432;51.902;10.844;2023-03-01T03:41:53;100837.38;;;-3.37;100.00
53546;BME280;39432;51.902;10.844;2023-03-01T03:44:23;100844.91;;;-2.93;100.00
53546;BME280;39432;51.902;10.844;2023-03-01T03:46:55;100839.13;;;-2.59;100.00
53546;BME280;39432;51.902;10.844;2023-03-01T03:49:25;100841.69;;;-2.96;100.00
53546;BME280;39432;51.902;10.844;2023-03-01T03:51:54;100848.75;;;-3.35;100.00
53546;BME280;39432;51.902;10.844;2023-03-01T03:54:24;100852.44;;;-3.36;100.00
53546;BME280;39432;51.902;10.844;2023-03-01T03:56:53;100854.19;;;-3.16;100.00
53546;BME280;39432;51.902;10.844;2023-03-01T03:59:23;100847.00;;;-3.06;100.00
53546;BME280;39432;51.902;10.844;2023-03-01T04:01:55;100857.66;;;-3.35;100.00
53546;BME280;39432;51.902;10.844;2023-03-01T04:04:25;100859.84;;;-2.42;100.00
53546;BME280;39432;51.902;10.844;2023-03-01T04:06:54;100863.06;;;-2.28;100.00
53546;BME280;39432;51.902;10.844;2023-03-01T04:09:24;100845.97;;;-2.08;100.00
53546;BME280;39432;51.902;10.844;2023-03-01T04:11:54;100865.91;;;-2.40;100.00
53546;BME280;39432;51.902;10.844;2023-03-01T04:14:23;100852.09;;;-3.53;100.00
53546;BME280;39432;51.902;10.844;2023-03-01T04:16:55;100855.06;;;-2.67;100.00
53546;BME280;39432;51.902;10.844;2023-03-01T04:19:25;100845.19;;;-2.47;100.00
53546;BME280;39432;51.902;10.844;2023-03-01T04:21:55;100852.19;;;-2.27;100.00
53546;BME280;39432;51.902;10.844;2023-03-01T04:24:25;100844.13;;;-2.07;100.00
53546;BME280;39432;51.902;10.844;2023-03-01T04:26:54;100849.97;;;-2.60;100.00
53546;BME280;39432;51.902;10.844;2023-03-01T04:29:24;100834.75;;;-2.41;100.00
53546;BME280;39432;51.902;10.844;2023-03-01T04:31:56;100833.91;;;-2.41;100.00
53546;BME280;39432;51.902;10.844;2023-03-01T04:34:26;100831.97;;;-2.02;100.00
53546;BME280;39432;51.902;10.844;2023-03-01T04:36:56;100843.50;;;-2.58;100.00
53546;BME280;39432;51.902;10.844;2023-03-01T04:39:25;100845.81;;;-2.16;100.00
53546;BME280;39432;51.902;10.844;2023-03-01T04:41:55;100834.56;;;-1.82;100.00
53546;BME280;39432;51.902;10.844;2023-03-01T04:44:24;100839.22;;;-2.31;100.00
53546;BME280;39432;51.902;10.844;2023-03-01T04:46:57;100836.44;;;-2.98;100.00
53546;BME280;39432;51.902;10.844;2023-03-01T04:49:26;100836.72;;;-2.81;100.00
53546;BME280;39432;51.902;10.844;2023-03-01T04:51:56;100839.53;;;-2.93;100.00
53546;BME280;39432;51.902;10.844;2023-03-01T04:54:28;100835.91;;;-2.62;100.00
53546;BME280;39432;51.902;10.844;2023-03-01T04:56:58;100840.25;;;-2.81;100.00
53546;BME280;39432;51.902;10.844;2023-03-01T04:59:28;100831.31;;;-2.23;100.00
53546;BME280;39432;51.902;10.844;2023-03-01T05:02:01;100829.13;;;-2.67;100.00
53546;BME280;39432;51.902;10.844;2023-03-01T05:04:30;100836.69;;;-2.23;100.00
53546;BME280;39432;51.902;10.844;2023-03-01T05:07:00;100841.19;;;-2.14;100.00
53546;BME280;39432;51.902;10.844;2023-03-01T05:09:30;100837.03;;;-1.99;100.00
53546;BME280;39432;51.902;10.844;2023-03-01T05:11:59;100842.59;;;-3.26;100.00
53546;BME280;39432;51.902;10.844;2023-03-01T05:14:29;100840.16;;;-3.49;100.00
53546;BME280;39432;51.902;10.844;2023-03-01T05:17:01;100846.19;;;-3.56;100.00
53546;BME280;39432;51.902;10.844;2023-03-01T05:19:32;100839.50;;;-3.31;100.00
53546;BME280;39432;51.902;10.844;2023-03-01T05:22:01;100839.00;;;-2.96;100.00
53546;BME280;39432;51.902;10.844;2023-03-01T05:24:33;100836.44;;;-3.17;100.00
53546;BME280;39432;51.902;10.844;2023-03-01T05:27:03;100839.72;;;-3.54;100.00
53546;BME280;39432;51.902;10.844;2023-03-01T05:29:33;100837.13;;;-3.15;100.00
53546;BME280;39432;51.902;10.844;2023-03-01T05:32:05;100840.34;;;-3.40;100.00
53546;BME280;39432;51.902;10.844;2023-03-01T05:34:36;100840.63;;;-3.24;100.00
53546;BME280;39432;51.902;10.844;2023-03-01T05:37:05;100840.25;;;-3.60;100.00
53546;BME280;39432;51.902;10.844;2023-03-01T05:39:36;100831.75;;;-3.25;100.00
53546;BME280;39432;51.902;10.844;2023-03-01T05:42:05;100828.47;;;-3.48;100.00
53546;BME280;39432;51.902;10.844;2023-03-01T05:44:35;100833.91;;;-2.60;100.00
53546;BME280;39432;51.902;10.844;2023-03-01T05:47:07;100833.03;;;-3.29;100.00
53546;BME280;39432;51.902;10.844;2023-03-01T05:49:37;100839.56;;;-3.62;100.00
53546;BME280;39432;51.902;10.844;2023-03-01T05:52:07;100837.28;;;-2.97;100.00
53546;BME280;39432;51.902;10.844;2023-03-01T05:54:37;100835.94;;;-3.41;100.00
53546;BME280;39432;51.902;10.844;2023-03-01T05:57:07;100836.97;;;-3.33;100.00
53546;BME280;39432;51.902;10.844;2023-03-01T05:59:37;100832.19;;;-3.29;100.00
53546;BME280;39432;51.902;10.844;2023-03-01T06:02:09;100824.63;;;-2.85;100.00
53546;BME280;39432;51.902;10.844;2023-03-01T06:04:39;100827.13;;;-3.03;100.00
53546;BME280;39432;51.902;10.844;2023-03-01T06:07:09;100828.69;;;-3.70;100.00
53546;BME280;39432;51.902;10.844;2023-03-01T06:09:38;100825.13;;;-3.30;100.00
53546;BME280;39432;51.902;10.844;2023-03-01T06:12:08;100827.44;;;-3.66;100.00
53546;BME280;39432;51.902;10.844;2023-03-01T06:14:39;100829.56;;;-3.60;100.00
53546;BME280;39432;51.902;10.844;2023-03-01T06:17:11;100831.00;;;-3.56;100.00
53546;BME280;39432;51.902;10.844;2023-03-01T06:19:41;100820.06;;;-3.33;100.00
53546;BME280;39432;51.902;10.844;2023-03-01T06:22:10;100821.91;;;-3.74;100.00
53546;BME280;39432;51.902;10.844;2023-03-01T06:24:40;100825.81;;;-3.88;100.00
53546;BME280;39432;51.902;10.844;2023-03-01T06:27:10;100825.03;;;-3.69;100.00
53546;BME280;39432;51.902;10.844;2023-03-01T06:29:39;100826.44;;;-3.65;100.00
53546;BME280;39432;51.902;10.844;2023-03-01T06:32:11;100830.72;;;-3.43;100.00
53546;BME280;39432;51.902;10.844;2023-03-01T06:34:41;100824.63;;;-2.66;100.00
53546;BME280;39432;51.902;10.844;2023-03-01T06:37:11;100825.38;;;-2.07;100.00
53546;BME280;39432;51.902;10.844;2023-03-01T06:39:40;100827.03;;;-1.97;100.00
53546;BME280;39432;51.902;10.844;2023-03-01T06:42:10;100830.44;;;-3.50;100.00
53546;BME280;39432;51.902;10.844;2023-03-01T06:44:40;100825.19;;;-3.61;100.00
53546;BME280;39432;51.902;10.844;2023-03-01T06:47:13;100827.84;;;-3.11;100.00
53546;BME280;39432;51.902;10.844;2023-03-01T06:49:43;100821.94;;;-2.66;100.00
53546;BME280;39432;51.902;10.844;2023-03-01T06:52:12;100821.06;;;-1.91;100.00
53546;BME280;39432;51.902;10.844;2023-03-01T06:54:42;100815.06;;;-2.12;100.00
53546;BME280;39432;51.902;10.844;2023-03-01T06:57:11;100828.72;;;-1.96;100.00
53546;BME280;39432;51.902;10.844;2023-03-01T06:59:41;100812.13;;;-1.54;100.00
53546;BME280;39432;51.902;10.844;2023-03-01T07:02:14;100819.59;;;-1.75;100.00
53546;BME280;39432;51.902;10.844;2023-03-01T07:04:44;100816.47;;;-0.80;100.00
53546;BME280;39432;51.902;10.844;2023-03-01T07:07:14;100817.13;;;-0.96;100.00
53546;BME280;39432;51.902;10.844;2023-03-01T07:09:45;100825.72;;;-1.10;100.00
53546;BME280;39432;51.902;10.844;2023-03-01T07:12:14;100817.75;;;-1.02;100.00
53546;BME280;39432;51.902;10.844;2023-03-01T07:14:44;100814.47;;;0.60;100.00
53546;BME280;39432;51.902;10.844;2023-03-01T07:17:16;100804.53;;;1.27;100.00
53546;BME280;39432;51.902;10.844;2023-03-01T07:19:47;100808.28;;;0.68;100.00
53546;BME280;39432;51.902;10.844;2023-03-01T07:22:17;100805.53;;;1.67;100.00
53546;BME280;39432;51.902;10.844;2023-03-01T07:24:46;100808.50;;;2.05;100.00
53546;BME280;39432;51.902;10.844;2023-03-01T07:27:16;100800.78;;;1.04;99.20
53546;BME280;39432;51.902;10.844;2023-03-01T07:29:45;100794.78;;;2.62;98.47
53546;BME280;39432;51.902;10.844;2023-03-01T07:32:18;100795.94;;;1.32;96.60
53546;BME280;39432;51.902;10.844;2023-03-01T07:34:47;100792.88;;;1.76;96.55
53546;BME280;39432;51.902;10.844;2023-03-01T07:37:17;100790.22;;;2.62;92.54
53546;BME280;39432;51.902;10.844;2023-03-01T07:39:47;100798.47;;;0.59;94.47
53546;BME280;39432;51.902;10.844;2023-03-01T07:42:17;100787.28;;;-0.31;97.60
53546;BME280;39432;51.902;10.844;2023-03-01T07:44:46;100785.56;;;0.62;100.00
53546;BME280;39432;51.902;10.844;2023-03-01T07:47:19;100784.63;;;1.12;100.00
53546;BME280;39432;51.902;10.844;2023-03-01T07:49:48;100784.81;;;1.35;99.64
53546;BME280;39432;51.902;10.844;2023-03-01T07:52:18;100783.78;;;1.77;99.79
53546;BME280;39432;51.902;10.844;2023-03-01T07:54:47;100778.63;;;0.60;100.00
53546;BME280;39432;51.902;10.844;2023-03-01T07:57:17;100781.91;;;1.69;100.00
53546;BME280;39432;51.902;10.844;2023-03-01T07:59:46;100783.31;;;1.49;100.00
53546;BME280;39432;51.902;10.844;2023-03-01T08:02:19;100782.41;;;0.33;100.00
53546;BME280;39432;51.902;10.844;2023-03-01T08:04:48;100777.72;;;0.43;100.00
53546;BME280;39432;51.902;10.844;2023-03-01T08:07:18;100790.25;;;0.18;100.00
53546;BME280;39432;51.902;10.844;2023-03-01T08:09:48;100785.06;;;0.24;100.00
53546;BME280;39432;51.902;10.844;2023-03-01T08:12:17;100788.00;;;0.05;100.00
53546;BME280;39432;51.902;10.844;2023-03-01T08:14:47;100790.09;;;0.70;100.00
53546;BME280;39432;51.902;10.844;2023-03-01T08:17:19;100788.56;;;0.59;100.00
53546;BME280;39432;51.902;10.844;2023-03-01T08:19:49;100785.16;;;1.32;100.00
53546;BME280;39432;51.902;10.844;2023-03-01T08:22:22;100783.94;;;1.02;100.00
53546;BME280;39432;51.902;10.844;2023-03-01T08:24:51;100785.16;;;1.32;100.00
53546;BME280;39432;51.902;10.844;2023-03-01T08:27:22;100790.25;;;0.18;100.00
53546;BME280;39432;51.902;10.844;2023-03-01T08:29:52;100795.34;;;0.88;100.00
53546;BME280;39432;51.902;10.844;2023-03-01T08:32:24;100789.00;;;1.05;100.00
53546;BME280;39432;51.902;10.844;2023-03-01T08:34:54;100791.38;;;1.16;100.00
53546;BME280;39432;51.902;10.844;2023-03-01T08:37:23;100798.09;;;1.20;100.00
53546;BME280;39432;51.902;10.844;2023-03-01T08:39:53;100799.09;;;0.95;100.00
53546;BME280;39432;51.902;10.844;2023-03-01T08:42:23;100796.09;;;1.22;100.00
53546;BME280;39432;51.902;10.844;2023-03-01T08:44:53;100790.72;;;1.55;100.00
53546;BME280;39432;51.902;10.844;2023-03-01T08:47:26;100793.28;;;0.65;100.00
53546;BME280;39432;51.902;10.844;2023-03-01T08:49:55;100791.50;;;0.90;100.00
53546;BME280;39432;51.902;10.844;2023-03-01T08:52:25;100779.50;;;0.76;100.00
53546;BME280;39432;51.902;10.844;2023-03-01T08:54:56;100781.94;;;1.37;100.00
53546;BME280;39432;51.902;10.844;2023-03-01T08:57:28;100787.69;;;1.50;100.00
53546;BME280;39432;51.902;10.844;2023-03-01T08:59:58;100774.16;;;1.74;100.00
53546;BME280;39432;51.902;10.844;2023-03-01T09:02:32;100783.28;;;1.41;100.00
53546;BME280;39432;51.902;10.844;2023-03-01T09:05:02;100775.91;;;1.26;100.00
53546;BME280;39432;51.902;10.844;2023-03-01T09:07:32;100770.09;;;1.70;100.00
53546;BME280;39432;51.902;10.844;2023-03-01T09:10:02;100772.97;;;1.77;100.00
53546;BME280;39432;51.902;10.844;2023-03-01T09:12:32;100777.56;;;1.60;100.00
53546;BME280;39432;51.902;10.844;2023-03-01T09:15:02;100767.50;;;2.09;99.42
53546;BME280;39432;51.902;10.844;2023-03-01T09:17:34;100762.25;;;2.86;99.68
53546;BME280;39432;51.902;10.844;2023-03-01T09:20:05;100766.63;;;2.87;96.88
53546;BME280;39432;51.902;10.844;2023-03-01T09:22:35;100767.97;;;2.21;93.87
53546;BME280;39432;51.902;10.844;2023-03-01T09:25:06;100771.78;;;1.79;94.77
53546;BME280;39432;51.902;10.844;2023-03-01T09:27:36;100767.78;;;1.51;96.46
53546;BME280;39432;51.902;10.844;2023-03-01T09:30:07;100772.25;;;1.99;96.00
53546;BME280;39432;51.902;10.844;2023-03-01T09:32:39;100774.72;;;2.17;95.71
53546;BME280;39432;51.902;10.844;2023-03-01T09:35:11;100770.06;;;2.73;95.44
53546;BME280;39432;51.902;10.844;2023-03-01T09:37:41;100775.84;;;1.67;95.19
53546;BME280;39432;51.902;10.844;2023-03-01T09:40:15;100769.38;;;2.09;95.40
53546;BME280;39432;51.902;10.844;2023-03-01T09:42:51;100770.81;;;1.48;93.97
53546;BME280;39432;51.902;10.844;2023-03-01T09:45:27;100766.94;;;2.22;96.71
53546;BME280;39432;51.902;10.844;2023-03-01T09:48:03;100768.94;;;2.36;94.14
53546;BME280;39432;51.902;10.844;2023-03-01T09:50:35;100757.69;;;2.17;92.19
53546;BME280;39432;51.902;10.844;2023-03-01T09:53:08;100764.94;;;2.86;91.33
53546;BME280;39432;51.902;10.844;2023-03-01T09:55:43;100763.13;;;2.48;90.54
53546;BME280;39432;51.902;10.844;2023-03-01T09:58:35;100771.41;;;1.99;91.06
53546;BME280;39432;51.902;10.844;2023-03-01T10:01:20;100757.19;;;2.13;92.61
53546;BME280;39432;51.902;10.844;2023-03-01T10:04:04;100759.19;;;2.19;93.55
53546;BME280;39432;51.902;10.844;2023-03-01T10:06:43;100759.63;;;2.70;93.48
53546;BME280;39432;51.902;10.844;2023-03-01T10:09:16;100760.59;;;3.23;91.34
53546;BME280;39432;51.902;10.844;2023-03-01T10:11:49;100761.28;;;3.25;89.34
53546;BME280;39432;51.902;10.844;2023-03-01T10:14:27;100760.97;;;3.20;87.48
53546;BME280;39432;51.902;10.844;2023-03-01T10:17:02;100755.06;;;3.39;86.39
53546;BME280;39432;51.902;10.844;2023-03-01T10:19:40;100770.16;;;2.57;87.83
53546;BME280;39432;51.902;10.844;2023-03-01T10:22:13;100767.34;;;2.81;89.32
53546;BME280;39432;51.902;10.844;2023-03-01T10:24:44;100756.16;;;3.07;88.94
53546;BME280;39432;51.902;10.844;2023-03-01T10:27:17;100760.59;;;3.23;85.31
53546;BME280;39432;51.902;10.844;2023-03-01T10:29:55;100753.69;;;2.44;88.42
53546;BME280;39432;51.902;10.844;2023-03-01T10:32:29;100758.06;;;2.53;90.11
53546;BME280;39432;51.902;10.844;2023-03-01T10:35:01;100759.53;;;3.32;88.78
53546;BME280;39432;51.902;10.844;2023-03-01T10:37:31;100750.81;;;2.99;85.13
53546;BME280;39432;51.902;10.844;2023-03-01T10:40:03;100741.91;;;3.74;84.79
53546;BME280;39432;51.902;10.844;2023-03-01T10:42:38;100738.31;;;3.59;82.94
53546;BME280;39432;51.902;10.844;2023-03-01T10:45:17;100746.28;;;2.69;82.29
53546;BME280;39432;51.902;10.844;2023-03-01T10:48:03;100748.13;;;3.22;82.62
53546;BME280;39432;51.902;10.844;2023-03-01T10:50:36;100745.94;;;2.95;83.06
53546;BME280;39432;51.902;10.844;2023-03-01T10:53:21;100740.06;;;3.37;82.34
53546;BME280;39432;51.902;10.844;2023-03-01T10:56:01;100730.94;;;3.53;81.57
53546;BME280;39432;51.902;10.844;2023-03-01T10:58:31;100743.78;;;2.90;82.64
53546;BME280;39432;51.902;10.844;2023-03-01T11:01:04;100734.94;;;3.57;82.20
53546;BME280;39432;51.902;10.844;2023-03-01T11:03:35;100735.06;;;3.63;81.00
53546;BME280;39432;51.902;10.844;2023-03-01T11:06:20;100735.44;;;3.60;79.69
53546;BME280;39432;51.902;10.844;2023-03-01T11:08:51;100724.41;;;3.47;78.62
53546;BME280;39432;51.902;10.844;2023-03-01T11:11:31;100720.13;;;3.53;77.22
53546;BME280;39432;51.902;10.844;2023-03-01T11:14:05;100717.78;;;3.50;77.48
53546;BME280;39432;51.902;10.844;2023-03-01T11:16:58;100730.22;;;3.59;77.68
53546;BME280;39432;51.902;10.844;2023-03-01T11:19:29;100725.66;;;3.74;77.50
53546;BME280;39432;51.902;10.844;2023-03-01T11:22:04;100713.91;;;3.96;76.91
53546;BME280;39432;51.902;10.844;2023-03-01T11:24:39;100724.81;;;3.88;77.86
53546;BME280;39432;51.902;10.844;2023-03-01T11:27:17;100727.81;;;3.93;75.57
53546;BME280;39432;51.902;10.844;2023-03-01T11:29:52;100720.41;;;4.32;73.97
53546;BME280;39432;51.902;10.844;2023-03-01T11:32:26;100729.63;;;4.37;73.67
53546;BME280;39432;51.902;10.844;2023-03-01T11:35:00;100731.63;;;4.14;72.74
53546;BME280;39432;51.902;10.844;2023-03-01T11:37:39;100712.31;;;4.02;74.07
53546;BME280;39432;51.902;10.844;2023-03-01T11:40:24;100723.91;;;4.62;72.85
53546;BME280;39432;51.902;10.844;2023-03-01T11:43:01;100717.97;;;4.94;72.26
53546;BME280;39432;51.902;10.844;2023-03-01T11:45:42;100707.72;;;3.73;72.79
53546;BME280;39432;51.902;10.844;2023-03-01T11:48:30;100709.59;;;3.87;74.92
53546;BME280;39432;51.902;10.844;2023-03-01T11:51:22;100697.94;;;3.57;75.82
53546;BME280;39432;51.902;10.844;2023-03-01T11:54:05;100703.91;;;3.53;77.04
53546;BME280;39432;51.902;10.844;2023-03-01T11:56:38;100704.38;;;3.86;80.13
53546;BME280;39432;51.902;10.844;2023-03-01T12:02:36;100706.63;;;3.82;75.78
53546;BME280;39432;51.902;10.844;2023-03-01T12:05:28;100700.00;;;3.85;76.14
53546;BME280;39432;51.902;10.844;2023-03-01T12:08:11;100700.72;;;3.79;75.47
53546;BME280;39432;51.902;10.844;2023-03-01T12:10:54;100687.03;;;3.80;76.55
53546;BME280;39432;51.902;10.844;2023-03-01T12:13:44;100681.97;;;3.77;77.46
53546;BME280;39432;51.902;10.844;2023-03-01T12:16:24;100687.38;;;4.07;77.29
53546;BME280;39432;51.902;10.844;2023-03-01T12:19:14;100684.16;;;4.90;74.21
53546;BME280;39432;51.902;10.844;2023-03-01T12:22:01;100682.03;;;4.86;72.09
53546;BME280;39432;51.902;10.844;2023-03-01T12:25:08;100681.31;;;4.98;70.53
53546;BME280;39432;51.902;10.844;2023-03-01T12:34:01;100673.00;;;5.00;69.16
53546;BME280;39432;51.902;10.844;2023-03-01T12:36:48;100672.47;;;4.90;67.86
53546;BME280;39432;51.902;10.844;2023-03-01T12:39:29;100665.16;;;5.12;66.76
53546;BME280;39432;51.902;10.844;2023-03-01T12:42:07;100660.25;;;5.22;66.50
53546;BME280;39432;51.902;10.844;2023-03-01T12:45:03;100655.47;;;5.02;63.61
53546;BME280;39432;51.902;10.844;2023-03-01T12:47:48;100654.56;;;4.16;63.14
53546;BME280;39432;51.902;10.844;2023-03-01T12:50:25;100654.19;;;4.98;63.10
53546;BME280;39432;51.902;10.844;2023-03-01T12:52:58;100647.88;;;4.91;63.17
53546;BME280;39432;51.902;10.844;2023-03-01T12:55:29;100639.53;;;4.50;62.33
53546;BME280;39432;51.902;10.844;2023-03-01T12:58:07;100639.03;;;4.83;63.03
53546;BME280;39432;51.902;10.844;2023-03-01T13:00:51;100626.44;;;4.96;63.84
53546;BME280;39432;51.902;10.844;2023-03-01T13:03:28;100629.16;;;4.96;64.78
53546;BME280;39432;51.902;10.844;2023-03-01T13:06:08;100614.59;;;5.32;64.26
53546;BME280;39432;51.902;10.844;2023-03-01T13:08:44;100643.75;;;4.16;65.20
53546;BME280;39432;51.902;10.844;2023-03-01T13:11:17;100625.41;;;4.55;65.94
53546;BME280;39432;51.902;10.844;2023-03-01T13:13:47;100623.22;;;4.86;66.58
53546;BME280;39432;51.902;10.844;2023-03-01T13:16:39;100620.50;;;4.86;68.01
53546;BME280;39432;51.902;10.844;2023-03-01T13:19:17;100616.44;;;5.25;66.92